Time,TemperatureF,DewpointF,PressureIn,WindDirection,WindDirectionDegrees,WindSpeedMPH,WindSpeedGustMPH,Humidity,HourlyPrecipIn,Conditions,Clouds,dailyrainin,SoftwareType,DateUTC
2013-04-09 00:06:00,21.8,11.0,32.33,West,267,3.0,13.0,63,0.00,,,0.00,weatherlink.com 1.10,2013-04-09 06:06:00,
2013-04-09 00:21:00,21.2,10.0,32.33,East,92,2.0,3.0,63,0.00,,,0.00,weatherlink.com 1.10,2013-04-09 06:21:00,
2013-04-09 00:36:00,21.2,10.0,32.34,NW,324,3.0,8.0,62,0.00,,,0.00,weatherlink.com 1.10,2013-04-09 06:36:00,
2013-04-09 00:51:00,20.7,11.0,32.35,NNW,342,0.0,5.0,65,0.00,,,0.00,weatherlink.com 1.10,2013-04-09 06:51:00,
2013-04-09 01:21:00,20.5,10.0,32.37,NE,50,3.0,12.0,63,0.00,,,0.00,weatherlink.com 1.10,2013-04-09 07:21:00,
2013-04-09 02:06:00,20.3,9.0,32.39,NNE,22,7.0,7.0,62,0.00,,,0.00,weatherlink.com 1.10,2013-04-09 08:06:00,
2013-04-09 02:21:00,20.3,9.0,32.39,NE,55,3.0,5.0,61,0.00,,,0.00,weatherlink.com 1.10,2013-04-09 08:21:00,
2013-04-09 02:36:00,20.2,9.0,32.39,North,5,5.0,5.0,62,0.00,,,0.00,weatherlink.com 1.10,2013-04-09 08:36:00,
2013-04-09 02:51:00,20.8,9.0,32.39,NNE,14,11.0,12.0,60,0.00,,,0.00,weatherlink.com 1.10,2013-04-09 08:51:00,
2013-04-09 03:06:00,20.5,9.0,32.39,NE,54,6.0,11.0,60,0.00,,,0.00,weatherlink.com 1.10,2013-04-09 09:06:00,
2013-04-09 03:21:00,20.7,9.0,32.40,SE,132,1.0,6.0,60,0.00,,,0.00,weatherlink.com 1.10,2013-04-09 09:21:00,
2013-04-09 03:36:00,20.4,8.0,32.40,NNW,331,3.0,4.0,59,0.00,,,0.00,weatherlink.com 1.10,2013-04-09 09:36:00,
2013-04-09 03:51:00,20.2,9.0,32.41,ENE,61,3.0,6.0,62,0.00,,,0.00,weatherlink.com 1.10,2013-04-09 09:51:00,
2013-04-09 04:06:00,19.7,9.0,32.42,WNW,287,2.0,6.0,63,0.00,,,0.00,weatherlink.com 1.10,2013-04-09 10:06:00,
2013-04-09 04:21:00,18.7,9.0,32.43,WNW,287,1.0,3.0,66,0.00,,,0.00,weatherlink.com 1.10,2013-04-09 10:21:00,
2013-04-09 04:36:00,19.2,8.0,32.43,NNE,33,2.0,4.0,63,0.00,,,0.00,weatherlink.com 1.10,2013-04-09 10:36:00,
2013-04-09 04:51:00,18.8,8.0,32.43,NNW,342,0.0,3.0,64,0.00,,,0.00,weatherlink.com 1.10,2013-04-09 10:51:00,
2013-04-09 05:06:00,18.9,8.0,32.43,NNW,342,1.0,2.0,63,0.00,,,0.00,weatherlink.com 1.10,2013-04-09 11:06:00,
2013-04-09 05:36:00,17.8,9.0,32.44,NW,323,1.0,3.0,67,0.00,,,0.00,weatherlink.com 1.10,2013-04-09 11:36:00,
2013-04-09 05:51:00,18.9,9.0,32.45,East,90,5.0,6.0,64,0.00,,,0.00,weatherlink.com 1.10,2013-04-09 11:51:00,
2013-04-09 06:06:00,18.8,8.0,32.45,East,94,0.0,3.0,63,0.00,,,0.00,weatherlink.com 1.10,2013-04-09 12:06:00,
2013-04-09 06:21:00,18.7,8.0,32.46,East,94,2.0,3.0,63,0.00,,,0.00,weatherlink.com 1.10,2013-04-09 12:21:00,
2013-04-09 06:36:00,18.5,8.0,32.47,East,94,2.0,2.0,64,0.00,,,0.00,weatherlink.com 1.10,2013-04-09 12:36:00,
2013-04-09 06:52:00,18.1,8.0,32.48,East,94,0.0,0.0,65,0.00,,,0.00,weatherlink.com 1.10,2013-04-09 12:52:00,
2013-04-09 07:06:00,18.3,8.0,32.49,East,94,2.0,3.0,65,0.00,,,0.00,weatherlink.com 1.10,2013-04-09 13:06:00,
2013-04-09 07:37:00,18.9,8.0,32.50,East,93,3.0,3.0,63,0.00,,,0.00,weatherlink.com 1.10,2013-04-09 13:37:00,
2013-04-09 07:52:00,18.9,8.0,32.50,East,93,0.0,1.0,63,0.00,,,0.00,weatherlink.com 1.10,2013-04-09 13:52:00,
2013-04-09 08:07:00,19.8,9.0,32.50,East,93,0.0,0.0,62,0.00,,,0.00,weatherlink.com 1.10,2013-04-09 14:07:00,
2013-04-09 08:22:00,21.6,9.0,32.50,East,93,0.0,0.0,58,0.00,,,0.00,weatherlink.com 1.10,2013-04-09 14:22:00,
2013-04-09 08:37:00,21.1,9.0,32.50,East,93,0.0,0.0,59,0.00,,,0.00,weatherlink.com 1.10,2013-04-09 14:37:00,
2013-04-09 08:52:00,21.0,9.0,32.50,East,96,1.0,3.0,61,0.00,,,0.00,weatherlink.com 1.10,2013-04-09 14:52:00,
2013-04-09 09:07:00,21.1,9.0,32.50,WSW,254,1.0,4.0,61,0.00,,,0.00,weatherlink.com 1.10,2013-04-09 15:07:00,
2013-04-09 09:22:00,22.5,11.0,32.50,SSE,155,3.0,8.0,62,0.00,,,0.00,weatherlink.com 1.10,2013-04-09 15:22:00,
2013-04-09 09:37:00,24.1,11.0,32.50,SE,138,8.0,13.0,57,0.00,,,0.00,weatherlink.com 1.10,2013-04-09 15:37:00,
2013-04-09 09:52:00,24.5,11.0,32.50,SSE,148,3.0,11.0,57,0.00,,,0.00,weatherlink.com 1.10,2013-04-09 15:52:00,
2013-04-09 10:07:00,25.4,11.0,32.50,South,172,6.0,10.0,55,0.00,,,0.00,weatherlink.com 1.10,2013-04-09 16:07:00,
2013-04-09 10:22:00,25.1,12.0,32.50,SW,229,5.0,6.0,57,0.00,,,0.00,weatherlink.com 1.10,2013-04-09 16:22:00,
2013-04-09 10:37:00,24.5,12.0,32.50,WSW,240,1.0,7.0,58,0.00,,,0.00,weatherlink.com 1.10,2013-04-09 16:37:00,
2013-04-09 10:52:00,25.6,13.0,32.50,WSW,250,3.0,6.0,58,0.00,,,0.00,weatherlink.com 1.10,2013-04-09 16:52:00,
2013-04-09 11:07:00,27.5,13.0,32.50,SW,219,1.0,6.0,54,0.00,,,0.00,weatherlink.com 1.10,2013-04-09 17:07:00,
2013-04-09 11:23:00,27.1,13.0,32.50,WSW,239,7.0,9.0,55,0.00,,,0.00,weatherlink.com 1.10,2013-04-09 17:23:00,
2013-04-09 11:38:00,26.9,13.0,32.50,West,264,8.0,10.0,57,0.00,,,0.00,weatherlink.com 1.10,2013-04-09 17:38:00,
2013-04-09 11:53:00,28.0,14.0,32.50,SW,222,2.0,10.0,55,0.00,,,0.00,weatherlink.com 1.10,2013-04-09 17:53:00,
2013-04-09 12:08:00,28.0,13.0,32.49,SW,232,5.0,14.0,53,0.00,,,0.00,weatherlink.com 1.10,2013-04-09 18:08:00,
2013-04-09 12:23:00,28.9,14.0,32.48,WNW,286,3.0,12.0,53,0.00,,,0.00,weatherlink.com 1.10,2013-04-09 18:23:00,